Terminal Aerodrome Forecast
Issued by NWS Albuquerque, NM

Home | Current Version | Previous Version | Text Only | Print | Product List | Glossary On
Versions: 1 2 3 4 5 6 7 8 9 10 11 12 13
000
FTUS45 KABQ 202300
TAFABQ
TAF
KABQ 202336Z 2100/2124 12016G26KT P6SM FEW100
     FM210900 09012G20KT P6SM FEW050
     FM211500 10016G26KT P6SM SCT050
     FM212100 12014G24KT P6SM VCTS BKN070CB=

USA.gov is the U.S. government's official web portal to all federal, state and local government web resources and services.